createdAt,value
2022-08-05T00:01:35.582Z,4.95
2022-08-05T00:04:08.217Z,4.20
2022-08-05T00:06:36.736Z,4.38
2022-08-05T00:09:12.952Z,4.72
2022-08-05T00:11:49.023Z,4.30
2022-08-05T00:14:17.958Z,4.73
2022-08-05T00:16:53.060Z,5.10
2022-08-05T00:19:22.701Z,4.82
2022-08-05T00:21:54.105Z,4.75
2022-08-05T00:24:24.868Z,4.85
2022-08-05T00:27:01.097Z,5.15
2022-08-05T00:29:37.963Z,4.43
2022-08-05T00:32:11.206Z,5.10
2022-08-05T00:34:54.816Z,4.72
2022-08-05T00:37:35.762Z,4.85
2022-08-05T00:40:27.407Z,4.13
2022-08-05T00:43:00.033Z,4.95
2022-08-05T00:45:38.905Z,4.35
2022-08-05T00:48:12.172Z,4.82
2022-08-05T00:50:44.071Z,4.85
2022-08-05T00:54:00.276Z,4.95
2022-08-05T00:56:01.343Z,4.85
2022-08-05T00:58:30.785Z,4.97
2022-08-05T01:00:59.105Z,5.10
2022-08-05T01:03:33.463Z,4.53
2022-08-05T01:06:02.652Z,5.03
2022-08-05T01:08:43.401Z,4.53
2022-08-05T01:11:22.726Z,4.93
2022-08-05T01:14:15.338Z,4.68
2022-08-05T01:16:49.865Z,3.90
2022-08-05T01:19:56.621Z,4.40
2022-08-05T01:22:38.714Z,5.25
2022-08-05T01:25:39.845Z,4.85
2022-08-05T01:28:22.131Z,4.82
2022-08-05T01:30:55.665Z,4.93
2022-08-05T01:33:29.528Z,4.47
2022-08-05T01:36:13.001Z,4.30
2022-08-05T01:38:42.008Z,4.85
2022-08-05T01:41:13.914Z,4.40
2022-08-05T01:43:44.734Z,5.20
2022-08-05T01:46:41.512Z,4.97
2022-08-05T01:49:22.906Z,4.90
2022-08-05T01:51:58.467Z,4.85
2022-08-05T01:54:31.331Z,5.15
2022-08-05T01:58:09.880Z,5.07
2022-08-05T01:59:53.599Z,5.00
2022-08-05T02:02:28.411Z,4.78
2022-08-05T02:05:03.113Z,4.75
2022-08-05T02:07:32.330Z,4.80
2022-08-05T02:10:02.483Z,4.97
2022-08-05T02:12:37.866Z,4.78
2022-08-05T02:15:13.595Z,5.28
2022-08-05T02:18:32.054Z,5.00
2022-08-05T02:20:49.348Z,5.68
2022-08-05T02:23:22.320Z,5.18
2022-08-05T02:25:52.234Z,5.20
2022-08-05T02:28:28.340Z,4.70
2022-08-05T02:31:04.388Z,5.35
2022-08-05T02:33:42.070Z,5.00
2022-08-05T02:36:15.672Z,4.78
2022-08-05T02:38:52.796Z,5.30
2022-08-05T02:41:23.776Z,5.60
2022-08-05T02:44:02.596Z,6.03
2022-08-05T02:46:53.463Z,4.88
2022-08-05T02:49:27.605Z,5.07
2022-08-05T02:52:08.765Z,5.03
2022-08-05T02:54:41.016Z,5.30
2022-08-05T02:58:10.568Z,5.28
2022-08-05T03:00:01.319Z,4.82
2022-08-05T03:02:35.653Z,4.82
2022-08-05T03:05:05.220Z,5.05
2022-08-05T03:08:00.192Z,4.55
2022-08-05T03:10:25.179Z,4.95
2022-08-05T03:12:54.996Z,4.55
2022-08-05T03:15:24.456Z,5.80
2022-08-05T03:17:57.566Z,5.22
2022-08-05T03:20:26.403Z,5.72
2022-08-05T03:22:57.682Z,5.63
2022-08-05T03:26:02.622Z,5.45
2022-08-05T03:28:18.770Z,5.20
2022-08-05T03:30:49.564Z,4.43
2022-08-05T03:33:20.434Z,5.15
2022-08-05T03:35:51.744Z,5.18
2022-08-05T03:38:32.862Z,4.80
2022-08-05T03:41:08.296Z,5.75
2022-08-05T03:44:08.756Z,4.45
2022-08-05T03:46:29.697Z,4.95
2022-08-05T03:49:02.140Z,4.60
2022-08-05T03:52:38.978Z,5.28
2022-08-05T03:55:50.220Z,5.18
2022-08-05T03:57:41.150Z,5.18
2022-08-05T04:00:15.916Z,5.40
2022-08-05T04:02:52.052Z,5.38
2022-08-05T04:05:33.795Z,5.18
2022-08-05T04:08:05.795Z,5.85
2022-08-05T04:10:44.859Z,5.47
2022-08-05T04:13:13.367Z,6.18
2022-08-05T04:16:02.689Z,5.28
2022-08-05T04:18:30.159Z,5.20
2022-08-05T04:21:00.048Z,5.00
2022-08-05T04:24:04.860Z,6.10
2022-08-05T04:26:18.422Z,6.07
2022-08-05T04:28:51.249Z,5.57
2022-08-05T04:31:20.494Z,5.43
2022-08-05T04:34:17.623Z,5.57
2022-08-05T04:36:46.054Z,4.95
2022-08-05T04:39:18.201Z,5.22
2022-08-05T04:41:48.182Z,5.63
2022-08-05T04:44:29.573Z,5.38
2022-08-05T04:46:59.040Z,5.30
2022-08-05T04:49:39.315Z,5.65
2022-08-05T04:52:17.410Z,6.03
2022-08-05T04:54:46.866Z,6.20
2022-08-05T04:57:17.803Z,5.93
2022-08-05T04:59:48.112Z,5.53
2022-08-05T05:02:41.589Z,5.80
2022-08-05T05:05:16.681Z,5.50
2022-08-05T05:07:56.419Z,5.38
2022-08-05T05:10:29.580Z,5.93
2022-08-05T05:12:58.597Z,5.40
2022-08-05T05:15:57.418Z,5.65
2022-08-05T05:18:16.587Z,5.20
2022-08-05T05:20:59.461Z,5.10
2022-08-05T05:24:02.398Z,5.95
2022-08-05T05:26:18.464Z,5.90
2022-08-05T05:28:46.639Z,6.00
2022-08-05T05:31:14.896Z,5.85
2022-08-05T05:34:01.744Z,5.82
2022-08-05T05:36:31.430Z,5.70
2022-08-05T05:39:03.852Z,5.82
2022-08-05T05:41:40.554Z,5.60
2022-08-05T05:44:35.920Z,5.68
2022-08-05T05:47:04.322Z,5.72
2022-08-05T05:49:33.337Z,5.57
2022-08-05T05:52:05.911Z,5.38
2022-08-05T05:54:50.374Z,5.13
2022-08-05T05:57:19.836Z,5.13
2022-08-05T05:59:48.701Z,5.25
2022-08-05T06:02:16.898Z,5.70
2022-08-05T06:04:49.315Z,5.47
2022-08-05T06:07:17.620Z,6.07
2022-08-05T06:10:01.417Z,5.28
2022-08-05T06:12:34.847Z,5.32
2022-08-05T06:15:23.726Z,5.18
2022-08-05T06:17:54.545Z,5.00
2022-08-05T06:20:23.183Z,4.78
2022-08-05T06:22:51.298Z,4.78
2022-08-05T06:25:25.288Z,5.20
2022-08-05T06:28:20.791Z,5.75
2022-08-05T06:30:49.801Z,5.03
2022-08-05T06:33:19.335Z,5.65
2022-08-05T06:36:05.812Z,5.05
2022-08-05T06:38:37.061Z,5.32
2022-08-05T06:41:07.959Z,4.90
2022-08-05T06:43:59.693Z,4.40
2022-08-05T06:46:29.718Z,5.22
2022-08-05T06:48:59.675Z,4.15
2022-08-05T06:51:30.029Z,4.78
2022-08-05T06:53:59.798Z,4.43
2022-08-05T06:56:29.648Z,5.13
2022-08-05T06:58:57.868Z,5.00
2022-08-05T07:01:31.989Z,4.78
2022-08-05T07:04:02.405Z,5.23
2022-08-05T07:06:32.084Z,5.10
2022-08-05T07:09:04.271Z,5.28
2022-08-05T07:11:37.317Z,4.40
2022-08-05T07:14:29.471Z,4.75
2022-08-05T07:18:08.338Z,4.65
2022-08-05T07:20:31.388Z,5.00
2022-08-05T07:22:39.861Z,5.20
2022-08-05T07:25:22.382Z,4.75
2022-08-05T07:27:59.515Z,4.22
2022-08-05T07:30:33.943Z,4.35
2022-08-05T07:33:05.132Z,4.97
2022-08-05T07:36:01.433Z,4.43
2022-08-05T07:38:32.739Z,4.25
2022-08-05T07:41:34.980Z,4.57
2022-08-05T07:43:56.172Z,4.78
2022-08-05T07:46:26.399Z,4.38
2022-08-05T07:49:01.428Z,3.85
2022-08-05T07:51:40.611Z,3.97
2022-08-05T07:54:10.524Z,3.88
2022-08-05T07:57:02.934Z,3.83
2022-08-05T07:59:38.840Z,4.00
2022-08-05T08:02:15.403Z,4.43
2022-08-05T08:04:47.345Z,4.38
2022-08-05T08:07:15.891Z,4.38
2022-08-05T08:09:44.331Z,3.63
2022-08-05T08:12:35.287Z,4.22
2022-08-05T08:15:04.314Z,3.97
2022-08-05T08:17:33.129Z,4.60
2022-08-05T08:20:21.108Z,3.83
2022-08-05T08:22:55.618Z,3.80
2022-08-05T08:25:26.748Z,3.00
2022-08-05T08:28:18.213Z,3.72
2022-08-05T08:31:02.647Z,3.80
2022-08-05T08:33:37.842Z,4.13
2022-08-05T08:38:56.989Z,3.28
2022-08-05T08:41:51.324Z,3.80
2022-08-05T08:45:19.920Z,3.67
2022-08-05T08:47:47.590Z,3.30
2022-08-05T08:50:14.663Z,3.78
2022-08-05T08:52:52.917Z,3.90
2022-08-05T08:56:02.137Z,3.88
2022-08-05T08:58:12.931Z,3.92
2022-08-05T09:00:44.490Z,3.97
2022-08-05T09:03:16.265Z,4.15
2022-08-05T09:06:08.038Z,3.20
2022-08-05T09:08:40.483Z,3.50
2022-08-05T09:11:13.723Z,3.75
2022-08-05T09:14:10.133Z,3.88
2022-08-05T09:16:32.213Z,4.00
2022-08-05T09:19:01.593Z,4.68
2022-08-05T09:22:23.519Z,4.10
2022-08-05T09:24:24.241Z,3.47
2022-08-05T09:26:54.130Z,4.20
2022-08-05T09:29:30.970Z,4.30
2022-08-05T09:32:40.772Z,3.75
2022-08-05T09:34:55.337Z,3.88
2022-08-05T09:38:12.071Z,3.78
2022-08-05T09:40:30.679Z,3.88
2022-08-05T09:43:01.229Z,4.18
2022-08-05T09:46:07.137Z,3.75
2022-08-05T09:48:31.372Z,3.72
2022-08-05T09:51:03.234Z,3.80
2022-08-05T09:53:53.979Z,4.07
2022-08-05T09:56:27.476Z,4.25
2022-08-05T09:59:00.152Z,4.03
2022-08-05T10:01:31.764Z,3.75
2022-08-05T10:04:04.476Z,4.05
2022-08-05T10:06:54.704Z,4.55
2022-08-05T10:09:29.678Z,4.28
2022-08-05T10:12:30.693Z,3.75
2022-08-05T10:15:16.209Z,3.40
2022-08-05T10:18:02.685Z,4.50
2022-08-05T10:23:03.528Z,3.78
2022-08-05T10:25:32.122Z,3.83
2022-08-05T10:28:13.910Z,4.85
2022-08-05T10:32:52.142Z,5.18
2022-08-05T10:33:37.170Z,4.03
2022-08-05T10:36:08.266Z,4.50
2022-08-05T10:38:38.567Z,4.10
2022-08-05T10:41:23.419Z,3.72
2022-08-05T10:43:59.302Z,3.65
2022-08-05T10:46:45.673Z,3.28
2022-08-05T10:49:16.768Z,3.13
2022-08-05T10:51:48.609Z,3.45
2022-08-05T10:55:02.857Z,3.50
2022-08-05T10:57:33.648Z,3.95
2022-08-05T11:00:19.274Z,3.13
2022-08-05T11:03:25.082Z,3.33
2022-08-05T11:06:15.692Z,3.03
2022-08-05T11:09:31.941Z,2.88
2022-08-05T11:12:50.444Z,2.90
2022-08-05T11:15:59.546Z,2.70
2022-08-05T11:18:29.728Z,3.00
2022-08-05T11:20:59.117Z,3.13
2022-08-05T11:23:33.189Z,3.35
2022-08-05T11:26:09.246Z,2.95
2022-08-05T11:28:48.416Z,3.90
2022-08-05T11:31:57.877Z,3.65
2022-08-05T11:34:37.592Z,3.38
2022-08-05T11:38:36.741Z,3.38
2022-08-05T11:40:00.456Z,3.47
2022-08-05T11:42:37.898Z,3.15
2022-08-05T11:45:23.166Z,3.38
2022-08-05T11:47:59.377Z,3.83
2022-08-05T11:50:28.538Z,3.58
2022-08-05T11:52:58.244Z,3.80
2022-08-05T11:55:31.961Z,4.30
2022-08-05T11:58:09.265Z,3.45
2022-08-05T12:03:23.832Z,3.25
2022-08-05T12:06:06.592Z,3.47
2022-08-05T12:08:51.140Z,3.30
2022-08-05T12:11:21.516Z,4.25
2022-08-05T12:13:59.386Z,3.28
2022-08-05T12:16:38.519Z,3.40
2022-08-05T12:19:08.743Z,3.28
2022-08-05T12:21:43.498Z,4.05
2022-08-05T12:24:17.267Z,3.40
2022-08-05T12:26:47.806Z,3.70
2022-08-05T12:29:22.496Z,3.83
2022-08-05T12:31:54.625Z,3.90
2022-08-05T12:34:28.379Z,3.80
2022-08-05T12:36:58.352Z,3.70
2022-08-05T12:39:34.622Z,3.72
2022-08-05T12:42:14.306Z,3.42
2022-08-05T12:44:44.458Z,4.50
2022-08-05T12:47:17.275Z,3.53
2022-08-05T12:50:03.753Z,3.17
2022-08-05T12:52:39.507Z,3.25
2022-08-05T12:55:26.276Z,4.20
2022-08-05T12:58:38.291Z,3.50
2022-08-05T13:02:04.263Z,3.60
2022-08-05T13:03:41.553Z,4.05
2022-08-05T13:06:16.160Z,4.22
2022-08-05T13:08:50.900Z,3.88
2022-08-05T13:11:25.308Z,3.30
2022-08-05T13:14:24.625Z,3.30
2022-08-05T13:17:08.804Z,3.28
2022-08-05T13:19:52.074Z,3.13
2022-08-05T13:22:29.255Z,2.80
2022-08-05T13:25:00.597Z,2.75
2022-08-05T13:27:37.496Z,3.00
2022-08-05T13:30:34.837Z,3.08
2022-08-05T13:32:57.465Z,2.90
2022-08-05T13:35:47.330Z,2.95
2022-08-05T13:38:30.552Z,3.00
2022-08-05T13:41:04.894Z,2.95
2022-08-05T13:43:44.853Z,3.08
2022-08-05T13:47:01.697Z,3.20
2022-08-05T13:49:11.857Z,3.22
2022-08-05T13:51:46.051Z,3.13
2022-08-05T13:54:16.112Z,2.67
2022-08-05T13:56:50.797Z,2.83
2022-08-05T13:59:21.443Z,2.75
2022-08-05T14:01:58.524Z,2.50
2022-08-05T14:04:49.818Z,2.63
2022-08-05T14:07:25.689Z,2.72
2022-08-05T14:10:12.195Z,2.25
2022-08-05T14:12:42.637Z,2.40
2022-08-05T14:16:05.955Z,2.08
2022-08-05T14:18:01.558Z,2.40
2022-08-05T14:20:32.528Z,2.38
2022-08-05T14:23:02.568Z,2.13
2022-08-05T14:25:30.819Z,2.35
2022-08-05T14:27:59.099Z,1.92
2022-08-05T14:30:28.334Z,2.20
2022-08-05T14:32:58.863Z,2.22
2022-08-05T14:35:37.543Z,1.98
2022-08-05T14:38:32.267Z,1.88
2022-08-05T14:41:05.965Z,2.00
2022-08-05T14:44:01.539Z,2.10
2022-08-05T14:46:29.156Z,1.98
2022-08-05T14:49:07.000Z,1.88
2022-08-05T14:51:37.524Z,2.13
2022-08-05T14:54:27.689Z,2.42
2022-08-05T14:56:56.657Z,2.72
2022-08-05T14:59:25.462Z,2.40
2022-08-05T15:01:58.181Z,2.08
2022-08-05T15:04:27.428Z,1.98
2022-08-05T15:06:57.352Z,1.77
2022-08-05T15:09:51.817Z,2.45
2022-08-05T15:12:27.052Z,2.33
2022-08-05T15:14:56.096Z,2.30
2022-08-05T15:17:45.634Z,2.00
2022-08-05T15:20:18.217Z,2.15
2022-08-05T15:22:54.199Z,2.00
2022-08-05T15:25:40.905Z,2.15
2022-08-05T15:28:15.478Z,2.10
2022-08-05T15:30:45.566Z,2.40
2022-08-05T15:33:53.718Z,2.20
2022-08-05T15:36:03.943Z,2.00
2022-08-05T15:38:36.534Z,2.20
2022-08-05T15:41:21.833Z,1.88
2022-08-05T15:43:51.851Z,1.80
2022-08-05T15:46:24.361Z,2.10
2022-08-05T15:49:00.602Z,1.92
2022-08-05T15:54:34.927Z,2.05
2022-08-05T15:57:07.332Z,1.90
2022-08-05T15:59:38.226Z,2.05
2022-08-05T16:02:09.179Z,2.50
2022-08-05T16:04:38.023Z,1.90
2022-08-05T16:07:10.809Z,1.73
2022-08-05T16:09:41.827Z,2.03
2022-08-05T16:12:11.729Z,1.90
2022-08-05T16:14:40.261Z,1.90
2022-08-05T16:17:09.512Z,1.83
2022-08-05T16:20:04.198Z,2.25
2022-08-05T16:22:27.856Z,2.10
2022-08-05T16:25:05.265Z,1.67
2022-08-05T16:28:00.872Z,2.20
2022-08-05T16:30:28.930Z,1.48
2022-08-05T16:32:57.815Z,1.85
2022-08-05T16:35:28.637Z,1.92
2022-08-05T16:38:15.126Z,2.00
2022-08-05T16:40:55.802Z,1.70
2022-08-05T16:43:31.380Z,1.83
2022-08-05T16:46:06.939Z,2.00
2022-08-05T16:48:41.324Z,1.85
2022-08-05T16:51:10.975Z,1.85
2022-08-05T16:54:02.786Z,2.05
2022-08-05T16:56:30.056Z,2.30
2022-08-05T16:59:00.934Z,2.10
2022-08-05T17:01:52.895Z,1.88
2022-08-05T17:04:26.726Z,2.00
2022-08-05T17:06:56.939Z,1.90
2022-08-05T17:09:29.564Z,1.75
2022-08-05T17:11:59.891Z,1.98
2022-08-05T17:14:37.613Z,1.95
2022-08-05T17:17:09.400Z,1.60
2022-08-05T17:19:46.079Z,1.83
2022-08-05T17:22:21.986Z,1.88
2022-08-05T17:24:58.045Z,1.70
2022-08-05T17:27:34.332Z,1.83
2022-08-05T17:30:11.848Z,1.60
2022-08-05T17:32:47.073Z,1.90
2022-08-05T17:35:20.578Z,1.60
2022-08-05T17:37:50.453Z,1.65
2022-08-05T17:40:22.403Z,1.85
2022-08-05T17:42:52.158Z,2.03
2022-08-05T17:45:29.635Z,1.98
2022-08-05T17:48:07.938Z,2.40
2022-08-05T17:50:36.542Z,1.50
2022-08-05T17:53:08.494Z,1.65
2022-08-05T17:55:39.619Z,1.70
2022-08-05T17:58:13.633Z,1.80
2022-08-05T18:00:47.556Z,1.67
2022-08-05T18:06:11.189Z,1.75
2022-08-05T18:08:44.614Z,1.88
2022-08-05T18:11:23.685Z,1.58
2022-08-05T18:13:53.263Z,1.80
2022-08-05T18:16:22.672Z,2.00
2022-08-05T18:18:50.925Z,1.95
2022-08-05T18:21:21.314Z,1.73
2022-08-05T18:23:54.287Z,1.73
2022-08-05T18:26:29.027Z,2.00
2022-08-05T18:28:58.706Z,1.65
2022-08-05T18:31:32.943Z,2.25
2022-08-05T18:34:02.232Z,1.83
2022-08-05T18:36:30.291Z,1.90
2022-08-05T18:38:58.407Z,1.70
2022-08-05T18:41:55.933Z,1.67
2022-08-05T18:44:15.519Z,1.55
2022-08-05T18:47:04.805Z,1.70
2022-08-05T18:49:57.828Z,1.90
2022-08-05T18:52:37.934Z,1.45
2022-08-05T18:55:10.679Z,2.10
2022-08-05T18:57:49.935Z,1.63
2022-08-05T19:00:28.440Z,1.77
2022-08-05T19:03:03.552Z,2.53
2022-08-05T19:06:12.425Z,2.20
2022-08-05T19:08:21.803Z,2.40
2022-08-05T19:10:50.556Z,2.15
2022-08-05T19:13:19.784Z,2.40
2022-08-05T19:15:59.879Z,2.60
2022-08-05T19:18:32.927Z,2.22
2022-08-05T19:21:01.536Z,2.30
2022-08-05T19:24:07.990Z,2.33
2022-08-05T19:26:22.386Z,1.98
2022-08-05T19:28:50.619Z,2.13
2022-08-05T19:31:19.571Z,2.03
2022-08-05T19:33:56.672Z,2.00
2022-08-05T19:36:25.996Z,2.35
2022-08-05T19:38:58.880Z,2.38
2022-08-05T19:42:05.478Z,2.13
2022-08-05T19:44:18.806Z,2.60
2022-08-05T19:46:47.419Z,2.67
2022-08-05T19:49:20.111Z,1.90
2022-08-05T19:52:08.545Z,2.03
2022-08-05T19:54:37.410Z,1.75
2022-08-05T19:57:09.455Z,2.03
2022-08-05T20:00:01.302Z,1.90
2022-08-05T20:02:31.419Z,2.33
2022-08-05T20:05:01.254Z,2.10
2022-08-05T20:07:45.796Z,2.42
2022-08-05T20:10:17.467Z,2.55
2022-08-05T20:12:49.373Z,2.00
2022-08-05T20:15:23.302Z,2.15
2022-08-05T20:18:10.990Z,1.92
2022-08-05T20:20:57.774Z,2.03
2022-08-05T20:23:39.780Z,2.05
2022-08-05T20:26:18.086Z,2.20
2022-08-05T20:28:48.479Z,2.05
2022-08-05T20:31:17.274Z,2.33
2022-08-05T20:33:45.843Z,1.98
2022-08-05T20:36:18.082Z,2.15
2022-08-05T20:38:54.186Z,2.03
2022-08-05T21:14:59.596Z,3.25
2022-08-05T21:17:28.410Z,2.97
2022-08-05T21:19:57.278Z,2.83
2022-08-05T21:22:27.285Z,3.33
2022-08-05T21:24:56.659Z,3.25
2022-08-05T21:27:27.513Z,3.35
2022-08-05T21:29:56.715Z,3.20
2022-08-05T21:32:27.643Z,4.10
2022-08-05T21:35:16.643Z,3.42
2022-08-05T21:37:53.096Z,5.00
2022-08-05T21:40:23.446Z,3.55
2022-08-05T21:42:53.564Z,4.75
2022-08-05T21:45:51.454Z,3.65
2022-08-05T21:48:13.584Z,3.72
2022-08-05T21:50:42.095Z,4.78
2022-08-05T21:53:21.468Z,3.70
2022-08-05T21:56:04.848Z,3.92
2022-08-05T21:58:42.051Z,4.50
2022-08-05T22:01:11.212Z,3.92
2022-08-05T22:03:54.014Z,4.35
2022-08-05T22:06:35.492Z,4.50
2022-08-05T22:09:14.017Z,4.78
2022-08-05T22:11:47.129Z,5.43
2022-08-05T22:14:35.140Z,5.63
2022-08-05T22:17:06.577Z,5.90
2022-08-05T22:20:02.911Z,5.95
2022-08-05T22:22:28.011Z,5.43
2022-08-05T22:25:18.034Z,5.78
2022-08-05T22:28:04.873Z,6.35
2022-08-05T22:30:55.531Z,5.88
2022-08-05T22:33:57.944Z,6.40
2022-08-05T22:36:18.293Z,6.63
2022-08-05T22:38:48.245Z,6.28
2022-08-05T22:41:26.493Z,6.50
2022-08-05T22:44:07.978Z,5.07
2022-08-05T22:46:40.236Z,6.93
2022-08-05T22:49:12.042Z,6.90
2022-08-05T22:52:07.293Z,6.80
2022-08-05T22:54:41.048Z,7.40
2022-08-05T22:57:16.996Z,6.95
2022-08-05T22:59:53.819Z,6.68
2022-08-05T23:02:29.402Z,6.82
2022-08-05T23:04:58.365Z,6.15
2022-08-05T23:07:31.750Z,6.47
2022-08-05T23:10:01.513Z,6.28
2022-08-05T23:12:32.482Z,6.03
2022-08-05T23:15:03.483Z,6.05
2022-08-05T23:17:37.565Z,7.47
2022-08-05T23:20:20.917Z,6.30
2022-08-05T23:22:55.958Z,6.60
2022-08-05T23:25:52.295Z,6.07
2022-08-05T23:28:15.828Z,6.53
2022-08-05T23:30:53.425Z,6.47
2022-08-05T23:33:26.119Z,6.00
2022-08-05T23:36:13.465Z,6.97
2022-08-05T23:38:43.759Z,7.07
2022-08-05T23:41:12.791Z,8.50
2022-08-05T23:44:05.941Z,7.55
2022-08-05T23:46:29.757Z,7.57
2022-08-05T23:48:59.848Z,8.70
2022-08-05T23:51:53.901Z,8.30
2022-08-05T23:54:26.454Z,8.65
2022-08-05T23:57:03.432Z,7.80
